createdAt,value
2018-04-27T00:01:06.433Z,4.00
2018-04-27T00:03:33.089Z,4.65
2018-04-27T00:05:59.720Z,4.00
2018-04-27T00:08:26.325Z,4.00
2018-04-27T00:10:52.888Z,3.58
2018-04-27T00:13:19.485Z,4.10
2018-04-27T00:15:46.139Z,4.97
2018-04-27T00:18:12.842Z,4.07
2018-04-27T00:20:39.682Z,4.07
2018-04-27T00:25:39.689Z,4.18
2018-04-27T00:28:06.309Z,3.65
2018-04-27T00:30:32.894Z,3.72
2018-04-27T00:32:59.919Z,4.25
2018-04-27T00:35:26.522Z,4.22
2018-04-27T00:37:53.073Z,3.95
2018-04-27T00:40:19.650Z,4.30
2018-04-27T00:42:46.280Z,3.67
2018-04-27T00:45:13.134Z,3.70
2018-04-27T00:47:40.066Z,3.25
2018-04-27T00:50:07.149Z,4.12
2018-04-27T00:52:46.210Z,4.00
2018-04-27T00:55:13.889Z,3.70
2018-04-27T00:57:40.681Z,3.42
2018-04-27T01:00:07.283Z,3.65
2018-04-27T01:02:33.868Z,4.03
2018-04-27T01:05:00.569Z,3.80
2018-04-27T01:07:27.588Z,3.22
2018-04-27T01:09:54.537Z,3.08
2018-04-27T01:12:21.323Z,3.25
2018-04-27T01:14:47.965Z,3.30
2018-04-27T01:17:15.000Z,3.42
2018-04-27T01:19:41.701Z,2.80
2018-04-27T01:22:08.370Z,2.83
2018-04-27T01:24:36.032Z,2.80
2018-04-27T01:27:02.655Z,3.50
2018-04-27T01:29:29.285Z,2.90
2018-04-27T01:31:55.900Z,3.15
2018-04-27T01:34:22.437Z,3.50
2018-04-27T01:36:49.016Z,3.20
2018-04-27T01:39:15.668Z,3.08
2018-04-27T01:41:42.440Z,3.12
2018-04-27T01:44:09.195Z,3.65
2018-04-27T01:46:35.849Z,2.87
2018-04-27T01:49:02.452Z,3.60
2018-04-27T01:51:29.431Z,3.47
2018-04-27T01:53:56.031Z,3.60
2018-04-27T01:56:22.576Z,3.00
2018-04-27T01:58:49.150Z,2.40
2018-04-27T02:01:15.848Z,2.90
2018-04-27T02:03:42.594Z,2.95
2018-04-27T02:06:09.806Z,2.75
2018-04-27T02:08:36.396Z,2.80
2018-04-27T02:11:03.411Z,2.53
2018-04-27T02:13:30.028Z,2.33
2018-04-27T02:15:56.616Z,3.00
2018-04-27T02:18:23.156Z,2.85
2018-04-27T02:20:49.736Z,2.40
2018-04-27T02:23:16.784Z,2.42
2018-04-27T02:25:43.873Z,2.53
2018-04-27T02:28:10.912Z,2.97
2018-04-27T02:30:37.656Z,3.10
2018-04-27T02:33:04.217Z,3.30
2018-04-27T02:35:31.254Z,2.62
2018-04-27T02:37:58.220Z,2.60
2018-04-27T02:40:24.772Z,2.90
2018-04-27T02:42:51.373Z,3.20
2018-04-27T02:45:17.990Z,2.85
2018-04-27T02:47:44.670Z,2.78
2018-04-27T02:50:11.786Z,3.33
2018-04-27T02:52:38.885Z,2.90
2018-04-27T02:55:12.619Z,3.00
2018-04-27T02:57:39.631Z,2.40
2018-04-27T03:00:06.327Z,2.83
2018-04-27T03:02:33.128Z,2.60
2018-04-27T03:04:59.801Z,3.12
2018-04-27T03:07:26.380Z,2.92
2018-04-27T03:09:53.005Z,3.00
2018-04-27T03:12:19.580Z,3.62
2018-04-27T03:14:46.408Z,3.17
2018-04-27T03:17:13.510Z,3.35
2018-04-27T03:19:40.668Z,3.87
2018-04-27T03:22:07.255Z,3.67
2018-04-27T03:24:34.246Z,3.20
2018-04-27T03:27:00.875Z,3.45
2018-04-27T03:29:27.485Z,3.70
2018-04-27T03:31:54.056Z,3.85
2018-04-27T03:34:21.083Z,3.60
2018-04-27T03:36:47.684Z,3.20
2018-04-27T03:39:14.478Z,3.70
2018-04-27T03:41:41.360Z,4.28
2018-04-27T03:44:08.097Z,4.60
2018-04-27T03:46:34.672Z,4.07
2018-04-27T03:49:01.668Z,3.55
2018-04-27T03:51:28.632Z,4.00
2018-04-27T03:53:55.220Z,4.30
2018-04-27T03:56:22.157Z,3.50
2018-04-27T03:58:48.705Z,3.67
2018-04-27T04:04:31.574Z,4.28
2018-04-27T04:06:58.579Z,4.28
2018-04-27T04:09:25.481Z,4.53
2018-04-27T04:11:52.038Z,4.25
2018-04-27T04:14:18.595Z,4.82
2018-04-27T04:16:45.107Z,5.75
2018-04-27T04:19:11.646Z,4.90
2018-04-27T04:21:38.199Z,4.50
2018-04-27T04:24:11.783Z,4.40
2018-04-27T04:26:38.327Z,4.70
2018-04-27T04:29:04.843Z,4.43
2018-04-27T04:31:31.425Z,4.18
2018-04-27T04:33:58.338Z,4.43
2018-04-27T04:36:24.855Z,4.40
2018-04-27T04:38:51.395Z,4.72
2018-04-27T04:41:17.943Z,3.53
2018-04-27T04:43:44.460Z,3.80
2018-04-27T04:46:11.011Z,4.07
2018-04-27T04:48:37.554Z,4.60
2018-04-27T04:51:11.279Z,4.60
2018-04-27T04:53:38.208Z,4.30
2018-04-27T04:56:04.738Z,5.30
2018-04-27T04:58:31.292Z,5.30
2018-04-27T05:00:57.883Z,4.25
2018-04-27T05:03:24.823Z,4.45
2018-04-27T05:05:51.415Z,5.30
2018-04-27T05:08:18.035Z,4.90
2018-04-27T05:10:44.584Z,5.22
2018-04-27T05:13:11.520Z,4.85
2018-04-27T05:15:38.079Z,5.00
2018-04-27T05:18:21.691Z,5.28
2018-04-27T05:20:48.322Z,4.57
2018-04-27T05:23:14.847Z,5.53
2018-04-27T05:25:41.433Z,5.75
2018-04-27T05:28:08.047Z,5.85
2018-04-27T05:30:34.622Z,5.32
2018-04-27T05:33:04.059Z,5.18
2018-04-27T05:35:30.682Z,5.28
2018-04-27T05:37:57.258Z,5.45
2018-04-27T05:40:24.284Z,5.80
2018-04-27T05:42:50.944Z,5.25
2018-04-27T05:45:17.514Z,6.25
2018-04-27T05:47:44.140Z,5.95
2018-04-27T05:50:10.822Z,6.07
2018-04-27T05:52:37.354Z,5.78
2018-04-27T05:55:03.983Z,6.30
2018-04-27T05:57:30.582Z,6.87
2018-04-27T05:59:57.480Z,6.47
2018-04-27T06:02:24.059Z,6.40
2018-04-27T06:04:50.747Z,6.28
2018-04-27T06:07:17.646Z,8.15
2018-04-27T06:09:44.212Z,7.25
2018-04-27T06:12:10.921Z,6.90
2018-04-27T06:14:37.510Z,8.63
2018-04-27T06:17:04.450Z,6.68
2018-04-27T06:19:31.818Z,6.40
2018-04-27T06:21:58.382Z,6.47
2018-04-27T06:24:25.575Z,6.95
2018-04-27T06:26:52.563Z,6.60
2018-04-27T06:29:19.574Z,6.65
2018-04-27T06:31:46.269Z,6.03
2018-04-27T06:34:13.236Z,5.50
2018-04-27T06:36:40.159Z,6.60
2018-04-27T06:39:07.098Z,6.10
2018-04-27T06:41:34.396Z,5.87
2018-04-27T06:44:02.144Z,5.57
2018-04-27T06:46:29.635Z,5.73
2018-04-27T06:48:56.550Z,4.70
2018-04-27T06:51:23.815Z,4.17
2018-04-27T06:53:51.013Z,3.73
2018-04-27T06:56:18.393Z,4.03
2018-04-27T06:58:45.553Z,3.70
2018-04-27T07:01:13.630Z,3.50
2018-04-27T07:03:40.952Z,3.47
2018-04-27T07:06:08.128Z,3.73
2018-04-27T07:08:35.591Z,3.97
2018-04-27T07:11:02.603Z,3.90
2018-04-27T07:13:29.742Z,3.57
2018-04-27T07:15:57.553Z,3.50
2018-04-27T07:18:24.972Z,2.87
2018-04-27T07:20:52.560Z,4.40
2018-04-27T07:23:20.857Z,3.50
2018-04-27T07:25:48.250Z,3.13
2018-04-27T07:28:14.975Z,4.20
2018-04-27T07:30:41.583Z,3.67
2018-04-27T07:33:08.185Z,3.97
2018-04-27T07:35:34.771Z,5.00
2018-04-27T07:38:01.368Z,3.30
2018-04-27T07:40:27.963Z,4.53
2018-04-27T07:42:54.559Z,3.87
2018-04-27T07:45:21.192Z,3.57
2018-04-27T07:47:47.815Z,3.43
2018-04-27T07:50:14.395Z,4.03
2018-04-27T07:52:41.371Z,4.27
2018-04-27T07:55:07.990Z,4.20
2018-04-27T07:57:34.919Z,3.63
2018-04-27T08:00:01.568Z,3.90
2018-04-27T08:02:28.254Z,5.40
2018-04-27T08:04:54.851Z,4.03
2018-04-27T08:07:21.423Z,3.80
2018-04-27T08:09:48.087Z,4.00
2018-04-27T08:12:14.664Z,3.40
2018-04-27T08:14:41.303Z,3.47
2018-04-27T08:17:08.290Z,3.63
2018-04-27T08:19:34.871Z,3.10
2018-04-27T08:22:01.498Z,4.17
2018-04-27T08:24:28.214Z,2.60
2018-04-27T08:26:54.754Z,3.40
2018-04-27T08:29:21.739Z,3.47
2018-04-27T08:31:48.399Z,3.87
2018-04-27T08:34:14.991Z,2.87
2018-04-27T08:36:41.919Z,3.47
2018-04-27T08:39:08.486Z,3.03
2018-04-27T08:41:35.035Z,2.80
2018-04-27T08:44:01.640Z,3.70
2018-04-27T08:46:29.122Z,3.50
2018-04-27T08:48:55.651Z,2.70
2018-04-27T08:51:22.287Z,3.37
2018-04-27T08:53:48.932Z,3.50
2018-04-27T08:56:15.520Z,3.53
2018-04-27T08:58:42.148Z,3.47
2018-04-27T09:01:08.732Z,3.10
2018-04-27T09:03:35.295Z,3.80
2018-04-27T09:06:01.850Z,3.73
2018-04-27T09:08:29.127Z,3.93
2018-04-27T09:10:55.704Z,3.50
2018-04-27T09:13:22.260Z,3.90
2018-04-27T09:15:48.827Z,3.10
2018-04-27T09:18:15.368Z,2.60
2018-04-27T09:20:41.942Z,3.20
2018-04-27T09:23:08.506Z,4.27
2018-04-27T09:25:35.442Z,3.27
2018-04-27T09:28:02.382Z,3.40
2018-04-27T09:30:29.036Z,3.23
2018-04-27T09:32:55.574Z,3.20
2018-04-27T09:35:22.131Z,3.70
2018-04-27T09:37:48.703Z,3.30
2018-04-27T09:40:15.611Z,3.00
2018-04-27T09:42:42.237Z,3.10
2018-04-27T09:45:08.858Z,3.90
2018-04-27T09:47:35.816Z,3.17
2018-04-27T09:50:02.800Z,3.83
2018-04-27T09:52:29.375Z,2.77
2018-04-27T09:54:55.899Z,3.30
2018-04-27T09:57:22.531Z,2.80
2018-04-27T09:59:49.539Z,2.73
2018-04-27T10:02:16.123Z,3.23
2018-04-27T10:04:43.073Z,2.30
2018-04-27T10:07:10.067Z,2.70
2018-04-27T10:09:36.631Z,2.17
2018-04-27T10:12:03.226Z,2.57
2018-04-27T10:14:30.154Z,2.03
2018-04-27T10:16:56.706Z,2.53
2018-04-27T10:19:23.330Z,2.60
2018-04-27T10:21:49.899Z,1.93
2018-04-27T10:24:16.422Z,2.17
2018-04-27T10:26:42.985Z,2.20
2018-04-27T10:29:09.558Z,1.53
2018-04-27T10:31:36.118Z,2.27
2018-04-27T10:34:03.043Z,2.23
2018-04-27T10:36:29.638Z,2.20
2018-04-27T10:38:56.239Z,1.93
2018-04-27T10:41:22.863Z,2.90
2018-04-27T10:43:49.433Z,2.33
2018-04-27T10:46:16.054Z,2.10
2018-04-27T10:48:42.667Z,3.40
2018-04-27T10:51:09.658Z,3.93
2018-04-27T10:53:36.293Z,3.67
2018-04-27T10:56:02.969Z,3.80
2018-04-27T10:58:29.570Z,3.73
2018-04-27T11:00:56.531Z,4.47
2018-04-27T11:03:23.537Z,3.37
2018-04-27T11:05:50.192Z,4.80
2018-04-27T11:08:16.787Z,3.80
2018-04-27T11:10:43.783Z,4.23
2018-04-27T11:13:10.453Z,3.97
2018-04-27T11:15:37.011Z,4.53
2018-04-27T11:18:03.655Z,3.00
2018-04-27T11:20:30.292Z,3.23
2018-04-27T11:22:56.872Z,2.40
2018-04-27T11:25:23.517Z,3.13
2018-04-27T11:27:50.140Z,3.10
2018-04-27T11:30:16.672Z,3.17
2018-04-27T11:32:43.271Z,3.23
2018-04-27T11:35:10.294Z,3.23
2018-04-27T11:37:36.802Z,2.73
2018-04-27T11:40:03.384Z,2.63
2018-04-27T11:42:30.039Z,2.90
2018-04-27T11:44:56.628Z,2.73
2018-04-27T11:47:23.619Z,2.73
2018-04-27T11:49:50.194Z,2.93
2018-04-27T11:52:16.792Z,2.97
2018-04-27T11:54:43.775Z,2.57
2018-04-27T11:57:10.396Z,3.67
2018-04-27T11:59:37.344Z,2.73
2018-04-27T12:02:04.382Z,2.90
2018-04-27T12:04:31.053Z,3.20
2018-04-27T12:06:58.043Z,2.80
2018-04-27T12:09:24.656Z,3.20
2018-04-27T12:11:51.295Z,2.90
2018-04-27T12:14:18.259Z,3.00
2018-04-27T12:16:45.246Z,2.83
2018-04-27T12:19:11.794Z,2.60
2018-04-27T12:21:38.401Z,2.43
2018-04-27T12:24:04.940Z,2.87
2018-04-27T12:26:31.496Z,2.90
2018-04-27T12:28:58.047Z,2.87
2018-04-27T12:31:24.828Z,2.47
2018-04-27T12:33:51.235Z,2.57
2018-04-27T12:36:17.824Z,3.10
2018-04-27T12:38:44.435Z,2.90
2018-04-27T12:41:11.051Z,3.00
2018-04-27T12:43:37.640Z,2.30
2018-04-27T12:46:04.627Z,2.17
2018-04-27T12:48:31.303Z,1.80
2018-04-27T12:50:57.921Z,2.30
2018-04-27T12:53:24.544Z,2.17
2018-04-27T12:55:51.146Z,1.70
2018-04-27T12:58:17.735Z,2.43
2018-04-27T13:00:44.287Z,1.90
2018-04-27T13:03:11.235Z,2.70
2018-04-27T13:05:37.823Z,2.30
2018-04-27T13:08:04.435Z,2.40
2018-04-27T13:10:31.035Z,2.43
2018-04-27T13:12:57.620Z,2.63
2018-04-27T13:15:24.248Z,2.23
2018-04-27T13:17:50.912Z,2.73
2018-04-27T13:20:17.431Z,2.00
2018-04-27T13:22:43.983Z,1.93
2018-04-27T13:25:10.530Z,2.17
2018-04-27T13:27:37.075Z,2.60
2018-04-27T13:30:03.708Z,2.60
2018-04-27T13:32:30.331Z,2.50
2018-04-27T13:34:57.236Z,2.37
2018-04-27T13:37:23.870Z,2.13
2018-04-27T13:39:50.497Z,2.60
2018-04-27T13:42:17.449Z,3.07
2018-04-27T13:44:44.391Z,2.50
2018-04-27T13:47:11.360Z,2.60
2018-04-27T13:49:38.285Z,2.60
2018-04-27T13:52:04.907Z,2.80
2018-04-27T13:54:31.528Z,2.83
2018-04-27T13:56:58.112Z,2.70
2018-04-27T13:59:24.798Z,2.80
2018-04-27T14:01:51.412Z,1.83
2018-04-27T14:04:18.009Z,2.37
2018-04-27T14:06:44.594Z,2.50
2018-04-27T14:09:11.227Z,2.60
2018-04-27T14:11:37.816Z,2.03
2018-04-27T14:14:04.466Z,3.43
2018-04-27T14:16:31.104Z,3.07
2018-04-27T14:18:57.699Z,2.77
2018-04-27T14:21:24.683Z,2.70
2018-04-27T14:23:51.240Z,3.03
2018-04-27T14:26:17.824Z,3.10
2018-04-27T14:28:44.392Z,2.60
2018-04-27T14:31:10.967Z,2.80
2018-04-27T14:33:37.520Z,2.53
2018-04-27T14:36:04.108Z,3.03
2018-04-27T14:38:30.691Z,3.27
2018-04-27T14:40:57.744Z,3.30
2018-04-27T14:43:24.240Z,4.10
2018-04-27T14:45:50.814Z,3.00
2018-04-27T14:48:17.346Z,2.90
2018-04-27T14:50:43.981Z,2.57
2018-04-27T14:53:10.616Z,3.23
2018-04-27T14:55:37.184Z,3.10
2018-04-27T14:58:03.938Z,3.33
2018-04-27T15:00:30.920Z,3.00
2018-04-27T15:02:57.559Z,3.00
2018-04-27T15:05:24.598Z,2.70
2018-04-27T15:07:51.619Z,2.37
2018-04-27T15:10:18.195Z,2.80
2018-04-27T15:12:44.816Z,2.50
2018-04-27T15:15:11.475Z,2.50
2018-04-27T15:17:38.075Z,2.53
2018-04-27T15:20:04.687Z,2.90
2018-04-27T15:22:31.287Z,2.50
2018-04-27T15:24:57.831Z,2.27
2018-04-27T15:27:24.450Z,2.50
2018-04-27T15:29:51.059Z,2.50
2018-04-27T15:32:17.603Z,3.07
2018-04-27T15:34:44.178Z,3.00
2018-04-27T15:37:10.791Z,2.57
2018-04-27T15:39:37.751Z,2.50
2018-04-27T15:42:04.362Z,3.20
2018-04-27T15:44:30.975Z,1.90
2018-04-27T15:46:57.555Z,3.73
2018-04-27T15:49:24.178Z,2.30
2018-04-27T15:51:50.801Z,2.80
2018-04-27T15:54:17.383Z,2.47
2018-04-27T15:56:43.940Z,3.50
2018-04-27T15:59:10.511Z,2.70
2018-04-27T16:01:37.147Z,2.73
2018-04-27T16:04:03.776Z,3.27
2018-04-27T16:06:31.296Z,3.03
2018-04-27T16:08:58.246Z,2.33
2018-04-27T16:11:25.180Z,2.70
2018-04-27T16:13:55.776Z,2.50
2018-04-27T16:16:23.231Z,2.90
2018-04-27T16:18:50.823Z,2.63
2018-04-27T16:21:17.458Z,2.50
2018-04-27T16:23:44.080Z,3.23
2018-04-27T16:26:11.082Z,2.40
2018-04-27T16:28:37.726Z,5.90
2018-04-27T16:31:04.355Z,3.60
2018-04-27T16:33:31.001Z,4.03
2018-04-27T16:35:57.986Z,4.57
2018-04-27T16:38:25.640Z,3.20
2018-04-27T16:40:52.263Z,3.83
2018-04-27T16:43:18.859Z,3.23
2018-04-27T16:45:45.407Z,2.90
2018-04-27T16:48:12.001Z,2.70
2018-04-27T16:50:38.621Z,2.70
2018-04-27T16:53:05.180Z,2.90
2018-04-27T16:55:31.803Z,2.70
2018-04-27T16:57:58.364Z,2.63
2018-04-27T17:00:24.958Z,2.03
2018-04-27T17:02:51.570Z,2.20
2018-04-27T17:05:18.210Z,2.10
2018-04-27T17:07:44.826Z,2.53
2018-04-27T17:10:11.452Z,2.43
2018-04-27T17:15:04.448Z,2.90
2018-04-27T17:17:31.456Z,2.70
2018-04-27T17:19:58.084Z,2.15
2018-04-27T17:22:24.683Z,2.80
2018-04-27T17:24:52.529Z,2.30
2018-04-27T17:27:19.154Z,2.90
2018-04-27T17:29:45.811Z,3.03
2018-04-27T17:32:12.447Z,2.30
2018-04-27T17:34:39.101Z,2.37
2018-04-27T17:37:05.740Z,2.83
2018-04-27T17:39:32.371Z,2.50
2018-04-27T17:41:59.367Z,2.30
2018-04-27T17:44:26.004Z,2.47
2018-04-27T17:46:52.984Z,2.10
2018-04-27T17:49:19.609Z,2.62
2018-04-27T17:51:46.168Z,2.67
2018-04-27T17:54:12.739Z,2.50
2018-04-27T17:56:39.302Z,2.70
2018-04-27T17:59:05.856Z,2.87
2018-04-27T18:01:32.451Z,2.87
2018-04-27T18:03:59.083Z,2.28
2018-04-27T18:06:25.659Z,2.47
2018-04-27T18:08:52.231Z,2.50
2018-04-27T18:11:18.818Z,2.70
2018-04-27T18:13:45.779Z,2.90
2018-04-27T18:16:12.407Z,2.78
2018-04-27T18:18:39.088Z,2.57
2018-04-27T18:21:05.792Z,2.25
2018-04-27T18:23:32.368Z,2.95
2018-04-27T18:25:59.387Z,3.05
2018-04-27T18:28:25.991Z,3.20
2018-04-27T18:30:52.556Z,2.90
2018-04-27T18:33:19.284Z,2.53
2018-04-27T18:35:45.820Z,2.70
2018-04-27T18:38:12.806Z,2.97
2018-04-27T18:40:39.447Z,3.27
2018-04-27T18:43:06.052Z,2.87
2018-04-27T18:45:32.671Z,3.43
2018-04-27T18:47:59.286Z,3.40
2018-04-27T18:50:27.823Z,3.73
2018-04-27T18:52:54.447Z,3.00
2018-04-27T18:57:55.029Z,2.92
2018-04-27T19:00:28.317Z,3.23
2018-04-27T19:02:55.574Z,2.90
2018-04-27T19:05:22.552Z,4.30
2018-04-27T19:07:49.460Z,4.15
2018-04-27T19:10:16.495Z,3.75
2018-04-27T19:12:43.512Z,4.05
2018-04-27T19:15:10.444Z,3.17
2018-04-27T19:17:37.465Z,3.00
2018-04-27T19:20:04.432Z,2.70
2018-04-27T19:22:32.493Z,4.60
2018-04-27T19:24:59.869Z,4.10
2018-04-27T19:27:28.175Z,4.05
2018-04-27T19:29:56.690Z,4.97
2018-04-27T19:32:23.750Z,4.72
2018-04-27T19:34:50.595Z,3.70
2018-04-27T19:37:17.487Z,3.40
2018-04-27T19:39:44.784Z,4.00
2018-04-27T19:52:00.791Z,5.57
2018-04-27T19:54:28.041Z,4.90
2018-04-27T19:56:58.019Z,4.57
2018-04-27T19:59:25.313Z,5.00
2018-04-27T20:01:52.986Z,3.17
2018-04-27T20:04:21.261Z,3.10
2018-04-27T20:06:48.516Z,3.30
2018-04-27T20:09:17.659Z,3.00
2018-04-27T20:11:44.798Z,3.60
2018-04-27T20:14:17.460Z,3.30
2018-04-27T20:16:44.089Z,3.17
2018-04-27T20:19:10.707Z,3.85
2018-04-27T20:21:37.331Z,4.05
2018-04-27T20:24:04.979Z,3.40
2018-04-27T20:26:31.579Z,3.67
2018-04-27T20:28:58.256Z,3.62
2018-04-27T20:31:24.912Z,3.72
2018-04-27T20:33:51.593Z,3.90
2018-04-27T20:36:18.605Z,3.70
2018-04-27T20:38:45.253Z,4.43
2018-04-27T20:41:11.860Z,4.60
2018-04-27T20:43:38.492Z,4.28
2018-04-27T20:46:05.495Z,4.07
2018-04-27T20:48:32.400Z,3.30
2018-04-27T20:50:59.407Z,3.40
2018-04-27T20:53:27.960Z,3.80
2018-04-27T20:56:05.475Z,3.80
2018-04-27T20:58:32.147Z,3.80
2018-04-27T21:00:58.777Z,4.30
2018-04-27T21:03:25.444Z,4.15
2018-04-27T21:05:52.118Z,3.80
2018-04-27T21:08:18.703Z,3.85
2018-04-27T21:10:45.327Z,4.00
2018-04-27T21:13:11.979Z,3.80
2018-04-27T21:15:38.582Z,3.90
2018-04-27T21:18:05.207Z,3.70
2018-04-27T21:20:32.212Z,4.70
2018-04-27T21:22:58.811Z,4.18
2018-04-27T21:25:34.039Z,4.05
2018-04-27T21:28:01.564Z,4.10
2018-04-27T21:30:37.384Z,4.50
2018-04-27T21:33:07.859Z,4.40
2018-04-27T21:35:42.398Z,4.20
2018-04-27T21:38:19.191Z,4.20
2018-04-27T21:40:45.824Z,4.12
2018-04-27T21:43:12.456Z,4.40
2018-04-27T21:45:39.415Z,4.20
2018-04-27T21:48:06.427Z,4.30
2018-04-27T21:50:33.058Z,4.80
2018-04-27T21:52:59.655Z,4.43
2018-04-27T21:55:26.312Z,4.70
2018-04-27T21:57:56.264Z,4.20
2018-04-27T22:00:24.816Z,4.30
2018-04-27T22:02:55.295Z,4.20
2018-04-27T22:08:43.623Z,5.00
2018-04-27T22:11:11.103Z,5.68
2018-04-27T22:13:37.705Z,5.95
2018-04-27T22:16:04.335Z,4.40
2018-04-27T22:18:31.339Z,4.32
2018-04-27T22:20:57.932Z,3.80
2018-04-27T22:23:26.519Z,3.83
2018-04-27T22:25:53.189Z,4.90
2018-04-27T22:28:39.727Z,4.28
2018-04-27T22:31:06.356Z,4.20
2018-04-27T22:33:48.223Z,3.60
2018-04-27T22:36:20.905Z,3.80
2018-04-27T22:41:56.619Z,4.07
2018-04-27T22:44:24.066Z,4.20
2018-04-27T22:46:54.518Z,4.60
2018-04-27T22:49:21.115Z,4.57
2018-04-27T22:51:48.122Z,4.40
2018-04-27T22:57:17.449Z,4.30
2018-04-27T22:59:45.734Z,3.65
2018-04-27T23:02:21.486Z,4.07
2018-04-27T23:04:48.922Z,4.15
2018-04-27T23:07:21.812Z,4.05
2018-04-27T23:09:48.830Z,4.00
2018-04-27T23:12:15.435Z,3.80
2018-04-27T23:14:42.423Z,4.70
2018-04-27T23:17:11.910Z,4.85
2018-04-27T23:19:38.862Z,4.55
2018-04-27T23:22:27.759Z,5.00
2018-04-27T23:27:55.007Z,4.50
2018-04-27T23:30:21.715Z,5.70
2018-04-27T23:32:48.308Z,5.20
2018-04-27T23:35:14.963Z,5.40
2018-04-27T23:37:41.584Z,5.18
2018-04-27T23:40:08.196Z,4.00
2018-04-27T23:42:34.862Z,4.67
2018-04-27T23:45:01.491Z,4.93
2018-04-27T23:47:28.085Z,4.32
2018-04-27T23:49:54.726Z,3.90
2018-04-27T23:52:21.339Z,4.30
2018-04-27T23:54:47.940Z,4.00
2018-04-27T23:57:16.526Z,5.07
2018-04-27T23:59:43.960Z,5.10
